Time;durP1;ratioP1;P1;durP2;ratioP2;P2;SDS_P1;SDS_P2;PMS_P1;PMS_P2;Temp;Humidity;BMP_temperature;BMP_pressure;BME280_temperature;BME280_humidity;BME280_pressure;Samples;Min_cycle;Max_cycle;Signal;HPM_P1;HPM_P2
2022/07/14 00:02:01;;;;;;;0.35;0.35;;;21.10;57.30;;;21.52;41.55;95277.81;5013760;28;20255;-78
2022/07/14 00:04:28;;;;;;;0.35;0.35;;;21.00;57.00;;;21.47;41.47;95283.13;5016117;28;20653;-77
2022/07/14 00:06:55;;;;;;;0.40;0.40;;;20.90;57.10;;;21.41;41.03;95272.41;5016033;28;20282;-79
2022/07/14 00:09:22;;;;;;;0.40;0.40;;;20.90;57.10;;;21.38;41.52;95282.75;5004699;28;20228;-78
2022/07/14 00:11:49;;;;;;;0.50;0.50;;;20.90;57.30;;;21.34;41.20;95276.31;5011263;28;20209;-77
2022/07/14 00:14:16;;;;;;;0.35;0.35;;;20.90;57.30;;;21.32;41.89;95273.88;4994015;28;20232;-78
2022/07/14 00:16:43;;;;;;;0.43;0.43;;;20.80;57.70;;;21.29;41.94;95274.41;5013241;28;20249;-77
2022/07/14 00:19:11;;;;;;;0.30;0.30;;;20.80;57.00;;;21.28;41.76;95280.78;5015623;28;20200;-78
2022/07/14 00:21:38;;;;;;;0.40;0.40;;;20.80;57.40;;;21.28;41.12;95275.47;5013887;28;20271;-77
2022/07/14 00:24:09;;;;;;;0.40;0.40;;;20.70;57.00;;;21.27;41.83;95271.19;4995790;28;20685;-78
2022/07/14 00:26:39;;;;;;;0.50;0.50;;;20.70;57.00;;;21.27;41.55;95269.31;5013487;28;20228;-78
2022/07/14 00:29:07;;;;;;;0.40;0.40;;;20.70;57.10;;;21.29;41.06;95266.41;5011962;28;20199;-78
2022/07/14 00:31:36;;;;;;;0.40;0.40;;;20.70;57.00;;;21.29;41.35;95271.75;4995581;28;20224;-78
2022/07/14 00:34:03;;;;;;;0.40;0.40;;;20.80;57.40;;;21.27;41.29;95273.84;5012524;28;20196;-78
2022/07/14 00:36:30;;;;;;;0.30;0.30;;;20.70;57.10;;;21.27;41.13;95266.63;5015333;28;20215;-78
2022/07/14 00:38:57;;;;;;;0.40;0.40;;;20.70;57.00;;;21.28;41.41;95267.47;5015224;28;20197;-78
2022/07/14 00:41:24;;;;;;;0.35;0.35;;;20.70;57.00;;;21.34;41.57;95263.00;5006625;28;20224;-78
2022/07/14 00:43:51;;;;;;;0.30;0.30;;;20.70;57.00;;;21.38;41.35;95266.75;5048043;28;20199;-78
2022/07/14 00:46:18;;;;;;;0.30;0.30;;;20.80;57.20;;;21.42;41.24;95266.00;5014863;28;20220;-79
2022/07/14 00:48:47;;;;;;;0.40;0.40;;;20.80;57.50;;;21.42;41.33;95259.84;5009634;28;20728;-78
2022/07/14 00:51:15;;;;;;;0.40;0.40;;;20.80;57.30;;;21.40;40.93;95260.09;5010582;28;20743;-77
2022/07/14 00:53:42;;;;;;;0.40;0.40;;;20.80;56.90;;;21.40;41.19;95262.78;5010796;28;20209;-78
2022/07/14 00:56:10;;;;;;;0.50;0.50;;;20.80;57.00;;;21.39;41.45;95261.16;4995442;28;20252;-78
2022/07/14 00:58:38;;;;;;;0.50;0.50;;;20.80;57.00;;;21.37;40.93;95257.13;4995405;28;20725;-77
2022/07/14 01:01:06;;;;;;;0.40;0.40;;;20.80;56.90;;;21.34;41.02;95252.31;5001715;28;20228;-78
2022/07/14 01:03:33;;;;;;;0.30;0.30;;;20.70;56.70;;;21.29;40.90;95253.06;4979418;28;20640;-78
2022/07/14 01:06:00;;;;;;;0.40;0.40;;;20.70;57.10;;;21.27;41.24;95255.16;5011692;28;20225;-78
2022/07/14 01:08:28;;;;;;;0.43;0.43;;;20.70;57.00;;;21.23;41.39;95249.53;5043684;28;20209;-77
2022/07/14 01:10:55;;;;;;;0.30;0.30;;;20.70;56.70;;;21.22;41.23;95247.91;5006312;28;20237;-77
2022/07/14 01:13:22;;;;;;;0.30;0.30;;;20.70;56.90;;;21.25;41.34;95255.44;5029311;28;20196;-78
2022/07/14 01:15:52;;;;;;;0.40;0.40;;;20.70;56.80;;;21.28;40.96;95252.25;4995082;28;20740;-78
2022/07/14 01:18:19;;;;;;;0.45;0.45;;;20.70;56.70;;;21.32;41.16;95243.75;4995368;28;20295;-78
2022/07/14 01:20:47;;;;;;;0.50;0.50;;;20.70;56.80;;;21.35;41.10;95253.91;5002136;28;20759;-78
2022/07/14 01:23:14;;;;;;;0.40;0.40;;;20.70;56.60;;;21.39;41.16;95247.03;4995145;28;20690;-78
2022/07/14 01:25:41;;;;;;;0.40;0.40;;;20.70;57.00;;;21.40;41.45;95238.75;4994887;28;20220;-78
2022/07/14 01:28:09;;;;;;;0.40;0.40;;;20.80;56.80;;;21.43;40.78;95229.44;5011369;28;20224;-78
2022/07/14 01:30:36;;;;;;;0.43;0.43;;;20.80;56.60;;;21.47;40.84;95238.56;5015387;28;20233;-77
2022/07/14 01:33:05;;;;;;;0.40;0.40;;;20.80;56.60;;;21.49;40.74;95239.09;5015132;28;20213;-78
2022/07/14 01:35:34;;;;;;;0.40;0.40;;;20.90;56.50;;;21.51;40.48;95241.53;5031181;28;20226;-78
2022/07/14 01:38:01;;;;;;;0.40;0.40;;;20.90;56.40;;;21.54;41.02;95228.47;5013614;28;20642;-78
2022/07/14 01:40:29;;;;;;;0.40;0.40;;;20.90;56.60;;;21.56;40.86;95236.25;5000047;28;20276;-78
2022/07/14 01:42:57;;;;;;;0.40;0.40;;;21.00;56.60;;;21.58;40.52;95242.97;4994871;28;20208;-78
2022/07/14 01:45:24;;;;;;;0.40;0.40;;;21.00;56.40;;;21.57;40.62;95238.69;5011125;28;20256;-78
2022/07/14 01:47:52;;;;;;;0.40;0.40;;;21.00;56.40;;;21.58;40.55;95232.28;5011058;28;20755;-78
2022/07/14 01:50:20;;;;;;;0.40;0.40;;;21.00;56.30;;;21.61;40.64;95236.31;5011614;28;20247;-78
2022/07/14 01:52:47;;;;;;;0.40;0.40;;;21.00;56.30;;;21.63;40.44;95236.06;5014815;28;20205;-78
2022/07/14 01:55:16;;;;;;;0.40;0.40;;;21.00;56.50;;;21.64;40.73;95229.66;5014712;28;20223;-78
2022/07/14 01:57:44;;;;;;;0.40;0.40;;;21.00;56.60;;;21.64;40.83;95229.66;4995633;28;20243;-78
2022/07/14 02:00:13;;;;;;;0.50;0.50;;;21.10;56.70;;;21.62;40.83;95227.25;5017327;28;20211;-78
2022/07/14 02:02:43;;;;;;;0.50;0.50;;;21.10;56.40;;;21.67;40.32;95224.63;5031077;28;20212;-78
2022/07/14 02:05:12;;;;;;;0.40;0.40;;;21.10;56.20;;;21.73;40.20;95218.25;5014309;28;20209;-78
2022/07/14 02:07:40;;;;;;;0.40;0.40;;;21.10;56.20;;;21.78;40.24;95216.72;5012011;28;20204;-78
2022/07/14 02:13:12;;;;;;;0.40;0.40;;;21.20;56.30;;;21.90;40.21;95215.44;5016262;28;20242;-78
2022/07/14 02:15:40;;;;;;;0.40;0.40;;;21.30;56.20;;;21.91;39.79;95213.59;5015785;28;20288;-78
2022/07/14 02:18:09;;;;;;;0.50;0.50;;;21.30;56.00;;;21.94;40.09;95221.09;5018160;28;20297;-78
2022/07/14 02:20:36;;;;;;;0.32;0.32;;;21.40;56.00;;;21.94;39.95;95215.75;5022731;28;20310;-78
2022/07/14 02:23:03;;;;;;;0.30;0.30;;;21.30;56.10;;;21.91;40.59;95222.41;4997678;28;20216;-78
2022/07/14 02:25:31;;;;;;;0.40;0.40;;;21.30;56.30;;;21.87;40.28;95213.31;4982298;28;20246;-78
2022/07/14 02:27:58;;;;;;;0.40;0.40;;;21.30;56.00;;;21.82;40.49;95215.91;4997797;28;20196;-78
2022/07/14 02:30:25;;;;;;;0.40;0.40;;;21.30;56.10;;;21.80;39.96;95212.72;5012744;28;20256;-77
2022/07/14 02:32:52;;;;;;;0.50;0.50;;;21.20;55.90;;;21.76;40.05;95214.28;4997745;28;20355;-77
2022/07/14 02:35:19;;;;;;;0.50;0.50;;;21.20;56.20;;;21.70;40.10;95208.09;5031262;28;20220;-78
2022/07/14 02:37:47;;;;;;;0.35;0.35;;;21.20;56.20;;;21.67;40.24;95213.94;5017429;28;20206;-78
2022/07/14 02:40:14;;;;;;;0.45;0.45;;;21.10;55.90;;;21.59;40.06;95207.22;5016382;28;20216;-78
2022/07/14 02:42:41;;;;;;;0.40;0.40;;;21.00;56.10;;;21.52;40.41;95203.91;5017294;28;20200;-78
2022/07/14 02:45:09;;;;;;;0.50;0.50;;;21.10;56.20;;;21.50;40.59;95211.38;5017490;28;20198;-78
2022/07/14 02:47:38;;;;;;;0.50;0.50;;;21.00;56.10;;;21.43;40.15;95203.56;5017324;28;20198;-78
2022/07/14 02:50:06;;;;;;;0.40;0.40;;;20.90;56.00;;;21.41;40.51;95205.69;5008554;28;20222;-78
2022/07/14 02:52:38;;;;;;;0.30;0.30;;;20.90;56.30;;;21.37;40.26;95209.94;5000751;28;20218;-78
2022/07/14 02:55:06;;;;;;;0.40;0.40;;;20.80;56.50;;;21.33;40.91;95198.13;5017253;28;20541;-78
2022/07/14 02:57:37;;;;;;;0.45;0.45;;;20.80;56.70;;;21.32;41.02;95201.84;5017032;28;20630;-77
2022/07/14 03:00:06;;;;;;;0.50;0.50;;;20.90;56.60;;;21.28;40.93;95198.09;5030755;28;20290;-76
2022/07/14 03:02:33;;;;;;;0.30;0.30;;;20.80;56.90;;;21.26;41.07;95195.69;4981294;28;20624;-78
2022/07/14 03:05:02;;;;;;;0.40;0.40;;;20.70;56.70;;;21.23;40.89;95206.84;4981371;28;20211;-78
2022/07/14 03:07:31;;;;;;;0.40;0.40;;;20.70;56.60;;;21.20;40.82;95201.22;4982190;28;20563;-78
2022/07/14 03:09:58;;;;;;;0.43;0.43;;;20.70;57.20;;;21.14;40.95;95195.03;5006291;28;20220;-78
2022/07/14 03:12:25;;;;;;;0.40;0.40;;;20.60;56.50;;;21.17;40.79;95199.06;5012124;28;20667;-78
2022/07/14 03:14:53;;;;;;;0.32;0.32;;;20.60;57.10;;;21.15;40.94;95201.16;4996961;28;20193;-78
2022/07/14 03:17:20;;;;;;;0.32;0.32;;;20.70;57.40;;;21.14;41.01;95195.03;5032169;28;20200;-79
2022/07/14 03:19:49;;;;;;;0.40;0.40;;;20.60;57.00;;;21.13;41.26;95203.25;5022521;28;20232;-78
2022/07/14 03:22:17;;;;;;;0.40;0.40;;;20.60;57.50;;;21.11;41.62;95204.31;4981087;28;20307;-78
2022/07/14 03:24:45;;;;;;;0.40;0.40;;;20.60;57.40;;;21.11;41.48;95206.19;4997274;28;20251;-78
2022/07/14 03:27:13;;;;;;;0.40;0.40;;;20.60;57.60;;;21.09;40.97;95198.44;4993231;28;20216;-78
2022/07/14 03:29:41;;;;;;;0.30;0.30;;;20.60;57.00;;;21.14;41.29;95197.69;5010743;28;20205;-78
2022/07/14 03:32:10;;;;;;;0.50;0.50;;;20.60;57.00;;;21.17;41.62;95197.19;5010087;28;20220;-78
2022/07/14 03:34:37;;;;;;;0.47;0.47;;;20.60;57.20;;;21.23;41.55;95198.84;4997033;28;20205;-78
2022/07/14 03:37:04;;;;;;;0.30;0.30;;;20.60;57.10;;;21.30;40.81;95192.50;5042422;28;20225;-78
2022/07/14 03:39:43;;;;;;;0.35;0.35;;;20.70;57.30;;;21.38;41.45;95197.38;5002100;28;20298;-78
2022/07/14 03:42:11;;;;;;;0.40;0.40;;;20.70;57.20;;;21.44;41.15;95197.16;5023319;28;20685;-78
2022/07/14 03:44:38;;;;;;;0.30;0.30;;;20.80;57.00;;;21.51;41.01;95198.84;5018692;28;20248;-78
2022/07/14 03:47:05;;;;;;;0.40;0.40;;;20.90;56.80;;;21.58;41.22;95196.78;5010229;28;20221;-78
2022/07/14 03:49:33;;;;;;;0.40;0.40;;;20.90;57.20;;;21.65;40.55;95193.91;5010558;28;20221;-78
2022/07/14 03:52:02;;;;;;;0.40;0.40;;;21.00;56.70;;;21.73;40.64;95196.91;4998955;28;20240;-78
2022/07/14 03:54:30;;;;;;;0.40;0.40;;;21.10;56.90;;;21.84;40.37;95197.00;5008444;28;20526;-77
2022/07/14 03:56:57;;;;;;;0.43;0.43;;;21.20;57.10;;;21.93;40.94;95194.66;4994757;28;20233;-78
2022/07/14 03:59:27;;;;;;;0.50;0.50;;;21.30;56.70;;;22.03;40.82;95194.69;5020599;28;20608;-78
2022/07/14 04:01:54;;;;;;;0.40;0.40;;;21.40;56.90;;;22.12;40.36;95195.84;5020933;28;20235;-79
2022/07/14 04:04:21;;;;;;;0.30;0.30;;;21.50;56.70;;;22.21;40.57;95191.59;4997399;28;20203;-78
2022/07/14 04:06:49;;;;;;;0.40;0.40;;;21.60;56.60;;;22.28;39.97;95183.38;5012433;28;20213;-78
2022/07/14 04:09:16;;;;;;;0.30;0.30;;;21.70;56.20;;;22.41;40.21;95187.50;5015321;28;20212;-78
2022/07/14 04:11:49;;;;;;;0.40;0.40;;;21.80;56.40;;;22.50;40.23;95193.13;5010677;28;20230;-77
2022/07/14 04:14:20;;;;;;;0.40;0.40;;;21.90;56.00;;;22.55;39.71;95191.28;5014358;28;20215;-79
2022/07/14 04:16:48;;;;;;;0.38;0.38;;;22.00;56.30;;;22.63;39.70;95198.00;4996895;28;20265;-78
2022/07/14 04:19:17;;;;;;;0.30;0.30;;;22.00;55.80;;;22.67;39.40;95187.59;4994040;28;20208;-78
2022/07/14 04:21:45;;;;;;;0.40;0.40;;;22.10;55.80;;;22.69;39.55;95183.59;5004280;28;20224;-79
2022/07/14 04:24:13;;;;;;;0.40;0.40;;;22.10;55.50;;;22.75;39.58;95184.41;4993692;28;20654;-79
2022/07/14 04:26:42;;;;;;;0.30;0.30;;;22.20;55.60;;;22.77;39.52;95187.63;5010044;28;20221;-78
2022/07/14 04:29:10;;;;;;;0.38;0.38;;;22.20;55.70;;;22.80;39.67;95181.75;5004402;28;20699;-77
2022/07/14 04:31:37;;;;;;;0.45;0.45;;;22.30;56.20;;;22.83;39.56;95181.22;5015348;28;20220;-79
2022/07/14 04:34:07;;;;;;;0.30;0.30;;;22.30;55.40;;;22.84;39.08;95180.16;5030779;28;20669;-78
2022/07/14 04:36:34;;;;;;;0.40;0.40;;;22.30;55.50;;;22.92;39.34;95183.38;5011256;28;20761;-78
2022/07/14 04:39:06;;;;;;;0.30;0.30;;;22.30;55.30;;;22.96;39.08;95185.28;5031038;28;20210;-78
2022/07/14 04:41:40;;;;;;;0.35;0.35;;;22.40;55.40;;;23.01;39.45;95181.81;5013113;28;20233;-78
2022/07/14 04:44:08;;;;;;;0.30;0.30;;;22.50;55.50;;;23.06;39.41;95187.19;4995693;28;20262;-78
2022/07/14 04:46:36;;;;;;;0.30;0.30;;;22.50;55.40;;;23.12;39.04;95193.31;5017461;28;20286;-78
2022/07/14 04:52:06;;;;;;;0.60;0.60;;;22.70;55.10;;;23.23;38.91;95195.00;5042494;28;20244;-78
2022/07/14 04:54:52;;;;;;;0.60;0.60;;;22.70;54.80;;;23.30;39.47;95202.75;4998284;28;20211;-79
2022/07/14 04:57:28;;;;;;;0.30;0.30;;;22.80;55.80;;;23.33;38.97;95196.88;5015105;28;20287;-79
2022/07/14 05:00:01;;;;;;;0.40;0.40;;;22.90;55.00;;;23.37;39.01;95197.94;4996082;28;20294;-78
2022/07/14 05:02:29;;;;;;;0.30;0.30;;;22.90;55.40;;;23.41;38.98;95207.06;5011523;28;20235;-79
2022/07/14 05:04:56;;;;;;;0.30;0.30;;;23.00;55.40;;;23.42;38.78;95202.50;4996173;28;20211;-79
2022/07/14 05:07:23;;;;;;;0.40;0.40;;;22.90;54.70;;;23.40;39.37;95204.66;4998392;28;20686;-79
2022/07/14 05:09:55;;;;;;;0.40;0.40;;;22.90;55.20;;;23.40;39.25;95208.16;5012216;28;20685;-78
2022/07/14 05:12:22;;;;;;;0.30;0.30;;;22.90;55.30;;;23.34;39.94;95203.84;4983913;28;20215;-78
2022/07/14 05:14:50;;;;;;;0.35;0.35;;;23.00;56.60;;;23.38;39.87;95204.91;4997658;28;20304;-78
2022/07/14 05:17:18;;;;;;;0.30;0.30;;;22.90;56.50;;;23.33;40.27;95211.06;5011822;28;20239;-79
2022/07/14 05:19:57;;;;;;;0.30;0.30;;;22.90;56.80;;;23.39;40.30;95208.38;5009915;28;20220;-78
2022/07/14 05:22:25;;;;;;;0.30;0.30;;;22.90;56.40;;;23.37;40.13;95197.94;5011175;28;20297;-79
2022/07/14 05:24:53;;;;;;;0.40;0.40;;;22.90;56.60;;;23.46;40.16;95203.56;4997313;28;20202;-79
2022/07/14 05:27:20;;;;;;;0.30;0.30;;;23.00;56.20;;;23.52;40.41;95207.88;5007112;28;20217;-79
2022/07/14 05:29:49;;;;;;;0.30;0.30;;;23.00;56.90;;;23.60;40.26;95203.88;5010791;28;20666;-79
2022/07/14 05:32:18;;;;;;;0.30;0.30;;;23.10;56.30;;;23.70;40.23;95206.53;5028627;28;20225;-79
2022/07/14 05:34:46;;;;;;;0.30;0.30;;;23.20;56.00;;;23.80;39.63;95214.59;5017593;28;20226;-78
2022/07/14 05:37:16;;;;;;;0.28;0.28;;;23.30;55.80;;;23.87;39.11;95211.63;5032589;28;20228;-78
2022/07/14 05:39:45;;;;;;;0.30;0.30;;;23.40;55.00;;;23.93;39.44;95210.59;4983493;28;20204;-79
2022/07/14 05:42:12;;;;;;;0.30;0.30;;;23.50;55.00;;;23.98;39.05;95199.84;4998736;28;20243;-78
2022/07/14 05:44:39;;;;;;;0.50;0.50;;;23.60;55.40;;;24.03;38.48;95201.72;4998916;28;20205;-79
2022/07/14 05:47:07;;;;;;;0.40;0.40;;;23.60;54.30;;;24.06;38.26;95190.47;5018874;28;20213;-77
2022/07/14 05:49:34;;;;;;;0.30;0.30;;;23.70;54.40;;;24.11;37.97;95193.16;4995178;28;20210;-78
2022/07/14 05:52:05;;;;;;;0.38;0.38;;;23.70;53.70;;;24.19;37.72;95193.69;5017454;28;20220;-79
2022/07/14 05:54:32;;;;;;;0.28;0.28;;;23.80;53.60;;;24.25;37.47;95197.94;5014694;28;20208;-79
2022/07/14 05:57:01;;;;;;;0.22;0.22;;;23.80;53.70;;;24.34;38.05;95200.88;5020487;28;20225;-78
2022/07/14 05:59:28;;;;;;;0.30;0.30;;;23.90;54.70;;;24.40;38.11;95194.41;4996673;28;20205;-79
2022/07/14 06:02:15;;;;;;;0.40;0.40;;;24.00;54.00;;;24.53;38.02;95201.09;4989446;28;20714;-80
2022/07/14 06:04:43;;;;;;;0.30;0.30;;;24.10;53.90;;;24.61;37.58;95201.31;5001898;28;20330;-78
2022/07/14 06:07:11;;;;;;;0.30;0.30;;;24.20;53.70;;;24.72;37.25;95204.81;5005045;28;20246;-78
2022/07/14 06:09:42;;;;;;;0.40;0.40;;;24.20;53.10;;;24.81;37.00;95207.72;4998724;28;20197;-78
2022/07/14 06:12:13;;;;;;;0.30;0.30;;;24.40;53.00;;;24.90;37.15;95187.28;5015607;28;20327;-78
2022/07/14 06:14:43;;;;;;;0.30;0.30;;;24.50;53.10;;;25.01;36.53;95196.09;5005430;28;20574;-78
2022/07/14 06:17:11;;;;;;;0.30;0.30;;;24.50;52.80;;;25.10;36.58;95193.63;5022509;28;20226;-77
2022/07/14 06:19:40;;;;;;;0.20;0.20;;;24.60;52.90;;;25.19;36.65;95199.22;4997255;28;20235;-79
2022/07/14 06:22:08;;;;;;;0.47;0.47;;;24.70;52.40;;;25.26;36.27;95183.59;5022002;28;20222;-79
2022/07/14 06:24:38;;;;;;;0.50;0.50;;;24.80;52.40;;;25.31;36.42;95182.78;5007459;28;20293;-79
2022/07/14 06:27:13;;;;;;;0.30;0.30;;;24.90;52.40;;;25.34;36.22;95184.88;5010685;28;20224;-79
2022/07/14 06:29:41;;;;;;;0.40;0.40;;;24.90;52.10;;;25.39;36.83;95192.94;5010730;28;20203;-80
2022/07/14 06:32:08;;;;;;;0.30;0.30;;;25.00;52.90;;;25.41;36.94;95182.72;5004086;28;20223;-79
2022/07/14 06:34:37;;;;;;;0.30;0.30;;;25.00;53.00;;;25.46;36.96;95179.97;5018429;28;20200;-78
2022/07/14 06:37:14;;;;;;;0.30;0.30;;;25.10;52.80;;;25.50;36.86;95175.69;5018025;28;20570;-79
2022/07/14 06:39:42;;;;;;;0.50;0.50;;;25.20;52.80;;;25.60;37.12;95179.34;5013517;28;20209;-78
2022/07/14 06:42:10;;;;;;;0.30;0.30;;;25.20;52.70;;;25.71;36.41;95172.84;5007124;28;20214;-78
2022/07/14 06:44:43;;;;;;;0.30;0.30;;;25.40;52.60;;;25.84;36.22;95180.25;4993489;28;20217;-79
2022/07/14 06:47:12;;;;;;;0.40;0.40;;;25.40;51.70;;;25.98;36.40;95177.69;5022603;28;20494;-79
2022/07/14 06:49:43;;;;;;;0.30;0.30;;;25.60;52.20;;;26.12;36.33;95174.34;5013841;28;20209;-79
2022/07/14 06:52:11;;;;;;;0.28;0.28;;;25.70;52.40;;;26.27;36.37;95171.53;5001183;28;20217;-79
2022/07/14 06:54:38;;;;;;;0.40;0.40;;;25.80;52.10;;;26.39;36.12;95173.00;5022118;28;20654;-78
2022/07/14 06:57:06;;;;;;;0.30;0.30;;;25.90;51.60;;;26.51;36.29;95165.31;4998731;28;20288;-79
2022/07/14 06:59:33;;;;;;;0.25;0.25;;;26.00;51.90;;;26.61;35.87;95167.09;4995450;28;20200;-77
2022/07/14 07:02:01;;;;;;;0.20;0.20;;;26.20;52.20;;;26.72;36.00;95160.53;5002766;28;20275;-78
2022/07/14 07:04:28;;;;;;;0.20;0.20;;;26.30;51.40;;;26.84;35.78;95160.09;5013729;28;20230;-78
2022/07/14 07:06:56;;;;;;;0.30;0.30;;;26.40;51.60;;;26.95;35.90;95152.69;4996935;28;20581;-77
2022/07/14 07:09:23;;;;;;;0.20;0.20;;;26.50;51.60;;;27.05;36.00;95157.13;5012007;28;20210;-79
2022/07/14 07:11:51;;;;;;;0.30;0.30;;;26.60;51.80;;;27.12;35.95;95154.88;5013730;28;20325;-79
2022/07/14 07:14:19;;;;;;;0.30;0.30;;;26.60;51.50;;;27.18;36.13;95151.03;5018865;28;20201;-79
2022/07/14 07:16:48;;;;;;;0.20;0.20;;;26.70;51.90;;;27.20;35.93;95146.16;5022442;28;20226;-78
2022/07/14 07:19:16;;;;;;;0.30;0.30;;;26.70;51.70;;;27.25;35.79;95143.38;5016781;28;20222;-79
2022/07/14 07:21:43;;;;;;;0.20;0.20;;;26.80;51.30;;;27.30;36.13;95145.19;5030385;28;20260;-79
2022/07/14 07:24:10;;;;;;;0.32;0.32;;;26.90;52.30;;;27.32;35.93;95143.03;5010854;28;20205;-79
2022/07/14 07:26:50;;;;;;;0.20;0.20;;;26.80;51.90;;;27.33;36.13;95148.13;5028896;28;20246;-80
2022/07/14 07:29:17;;;;;;;0.40;0.40;;;26.90;51.80;;;27.33;36.40;95148.13;5004358;28;20661;-79
2022/07/14 07:31:47;;;;;;;0.30;0.30;;;26.90;52.50;;;27.28;36.20;95142.00;5005466;28;20307;-80
2022/07/14 07:34:14;;;;;;;0.30;0.30;;;27.00;52.00;;;27.28;36.72;95140.13;5020688;28;20246;-79
2022/07/14 07:36:41;;;;;;;0.30;0.30;;;26.90;52.30;;;27.29;36.29;95138.22;5019230;28;20218;-79
2022/07/14 07:39:29;;;;;;;0.30;0.30;;;27.00;52.20;;;27.31;36.79;95146.81;5007803;28;20287;-78
2022/07/14 07:41:59;;;;;;;0.30;0.30;;;27.00;52.00;;;27.33;36.88;95144.59;5020949;28;20287;-79
2022/07/14 07:44:30;;;;;;;0.28;0.28;;;27.00;52.60;;;27.38;36.93;95141.03;5014194;28;20658;-79
2022/07/14 07:46:58;;;;;;;0.30;0.30;;;27.00;52.90;;;27.41;37.07;95135.09;5007412;28;20224;-79
2022/07/14 07:49:25;;;;;;;0.30;0.30;;;27.00;52.70;;;27.46;36.24;95140.41;4985940;28;20649;-79
2022/07/14 07:52:00;;;;;;;0.30;0.30;;;27.10;51.80;;;27.52;35.55;95135.75;4990277;28;20247;-79
2022/07/14 07:54:29;;;;;;;0.20;0.20;;;27.10;51.10;;;27.55;35.89;95130.56;5020448;28;20680;-79
2022/07/14 07:57:17;;;;;;;0.20;0.20;;;27.10;51.00;;;27.59;35.28;95133.47;5017639;28;20219;-80
2022/07/14 07:59:44;;;;;;;0.32;0.32;;;27.20;50.60;;;27.63;35.40;95129.88;4989303;28;20194;-80
2022/07/14 08:02:11;;;;;;;0.30;0.30;;;27.30;51.10;;;27.70;35.88;95123.34;5021504;28;20301;-79
2022/07/14 08:04:39;;;;;;;0.40;0.40;;;27.30;51.70;;;27.82;35.93;95134.44;4997398;28;20199;-80
2022/07/14 08:07:06;;;;;;;0.32;0.32;;;27.40;51.40;;;27.90;35.55;95124.84;5017761;28;20241;-80
2022/07/14 08:09:33;;;;;;;0.20;0.20;;;27.40;51.60;;;27.99;35.06;95119.56;5019544;28;20200;-80
2022/07/14 08:12:01;;;;;;;0.30;0.30;;;27.50;50.30;;;28.08;34.57;95120.50;5014998;28;20230;-78
2022/07/14 08:17:16;;;;;;;0.30;0.30;;;27.70;49.10;;;28.29;32.32;95118.22;5021969;28;20294;-79
2022/07/14 08:19:44;;;;;;;0.20;0.20;;;27.80;47.30;;;28.36;32.33;95107.81;4995271;28;20200;-79
2022/07/14 08:22:11;;;;;;;0.25;0.25;;;27.90;47.00;;;28.38;31.05;95119.13;5003413;28;21229;-80
2022/07/14 08:24:39;;;;;;;0.28;0.28;;;27.90;46.00;;;28.47;32.15;95121.91;5011135;28;20297;-80
2022/07/14 08:27:07;;;;;;;0.30;0.30;;;28.00;47.20;;;28.52;32.30;95116.41;5019459;28;20228;-79
2022/07/14 08:29:34;;;;;;;0.25;0.25;;;28.00;47.20;;;28.59;31.71;95116.00;5004531;28;20574;-80
2022/07/14 08:32:01;;;;;;;0.20;0.20;;;28.10;46.50;;;28.69;32.01;95123.91;5018842;28;20225;-79
2022/07/14 08:34:29;;;;;;;0.20;0.20;;;28.20;47.10;;;28.79;31.82;95117.50;5004149;28;20284;-79
2022/07/14 08:36:58;;;;;;;0.30;0.30;;;28.20;45.70;;;28.89;32.42;95116.47;5023564;28;20229;-81
2022/07/14 08:39:27;;;;;;;0.30;0.30;;;28.30;47.80;;;28.98;31.80;95120.06;5012590;28;20294;-79
2022/07/14 08:41:55;;;;;;;0.20;0.20;;;28.40;46.70;;;29.03;31.07;95111.84;5024379;28;20306;-80
2022/07/14 08:44:25;;;;;;;0.20;0.20;;;28.50;45.90;;;29.14;30.95;95120.50;5011094;28;20197;-80
2022/07/14 08:46:54;;;;;;;0.20;0.20;;;28.60;45.90;;;29.21;31.13;95112.78;5006696;28;20621;-80
2022/07/14 08:49:23;;;;;;;0.30;0.30;;;28.70;46.00;;;29.28;29.62;95111.56;5003956;28;20204;-80
2022/07/14 08:52:15;;;;;;;0.25;0.25;;;28.80;45.10;;;29.35;30.43;95112.75;5004573;28;20257;-80
2022/07/14 08:54:45;;;;;;;0.20;0.20;;;28.80;45.40;;;29.45;30.93;95113.63;5010658;28;20648;-80
2022/07/14 08:57:13;;;;;;;0.20;0.20;;;28.90;46.10;;;29.49;29.76;95098.38;4994549;28;20225;-81
2022/07/14 08:59:40;;;;;;;0.20;0.20;;;29.00;44.80;;;29.54;30.06;95103.63;4981654;28;20653;-80
2022/07/14 09:02:08;;;;;;;0.30;0.30;;;29.10;44.60;;;29.62;30.25;95102.13;4998344;28;20275;-79
2022/07/14 09:04:36;;;;;;;0.30;0.30;;;29.10;45.60;;;29.71;30.96;95102.94;4998734;28;20209;-80
2022/07/14 09:07:03;;;;;;;0.47;0.47;;;29.20;46.40;;;29.76;30.28;95102.84;5014383;28;20602;-80
2022/07/14 09:09:31;;;;;;;0.20;0.20;;;29.30;45.30;;;29.84;31.06;95107.47;5014630;28;20653;-79
2022/07/14 09:12:05;;;;;;;0.22;0.22;;;29.30;46.20;;;29.89;30.57;95105.75;5028883;28;20590;-79
2022/07/14 09:17:25;;;;;;;0.20;0.20;;;29.50;44.80;;;29.95;29.94;95113.44;5030608;28;20220;-77
2022/07/14 09:20:10;;;;;;;0.20;0.20;;;29.50;44.90;;;29.98;30.28;95099.31;4995014;28;20656;-79
2022/07/14 09:22:42;;;;;;;0.30;0.30;;;29.60;45.30;;;30.07;30.98;95106.69;5026757;28;20196;-79
2022/07/14 09:25:15;;;;;;;0.30;0.30;;;29.60;45.70;;;30.09;29.60;95101.72;4993979;28;20292;-78
2022/07/14 09:27:45;;;;;;;0.30;0.30;;;29.70;44.80;;;30.14;30.87;95101.63;5006395;28;20583;-79
2022/07/14 09:30:14;;;;;;;0.20;0.20;;;29.70;45.70;;;30.24;31.25;95100.53;5027558;28;20229;-80
2022/07/14 09:33:03;;;;;;;0.35;0.35;;;29.80;46.00;;;30.31;31.03;95092.72;5011074;28;20235;-79
2022/07/14 09:35:33;;;;;;;0.30;0.30;;;29.80;45.50;;;30.37;30.76;95086.09;5011597;28;20556;-79
2022/07/14 09:38:20;;;;;;;0.20;0.20;;;29.90;45.20;;;30.47;31.78;95093.13;5033323;28;20298;-78
2022/07/14 09:40:48;;;;;;;0.20;0.20;;;30.00;46.60;;;30.50;30.42;95098.72;5030705;28;20210;-78
2022/07/14 09:43:17;;;;;;;0.25;0.25;;;30.00;45.70;;;30.59;30.34;95103.34;4998274;28;20195;-78
2022/07/14 09:45:50;;;;;;;0.30;0.30;;;30.10;44.90;;;30.66;30.18;95101.78;5030075;28;20214;-77
2022/07/14 09:48:23;;;;;;;0.28;0.28;;;30.20;44.80;;;30.72;30.53;95093.50;4995313;28;20203;-79
2022/07/14 09:51:01;;;;;;;0.20;0.20;;;30.30;45.20;;;30.77;31.27;95102.28;5003884;28;20243;-78
2022/07/14 09:53:36;;;;;;;0.30;0.30;;;30.30;46.00;;;30.84;31.53;95085.56;5015981;28;20244;-80
2022/07/14 09:56:08;;;;;;;0.30;0.30;;;30.40;46.10;;;30.88;30.26;95088.41;4996714;28;20231;-78
2022/07/14 09:58:44;;;;;;;0.20;0.20;;;30.40;44.80;;;30.88;30.24;95099.25;5029124;28;20219;-78
2022/07/14 10:01:15;;;;;;;0.20;0.20;;;30.50;44.70;;;30.90;30.35;95078.84;5014606;28;20210;-78
2022/07/14 10:03:47;;;;;;;0.20;0.20;;;30.50;45.40;;;30.92;30.35;95087.47;5014607;28;20247;-79
2022/07/14 10:06:16;;;;;;;0.20;0.20;;;30.60;44.30;;;30.93;30.21;95080.13;5010461;28;20224;-78
2022/07/14 10:09:05;;;;;;;0.30;0.30;;;30.60;44.40;;;30.97;30.13;95079.19;5027355;28;20294;-79
2022/07/14 10:11:34;;;;;;;0.20;0.20;;;30.60;44.30;;;31.02;30.66;95072.81;5010800;28;20242;-79
2022/07/14 10:14:02;;;;;;;0.20;0.20;;;30.60;44.90;;;31.08;30.07;95068.03;5012651;28;20215;-79
2022/07/14 10:16:33;;;;;;;0.20;0.20;;;30.70;44.40;;;31.11;30.16;95076.34;5019176;28;20239;-79
2022/07/14 10:19:02;;;;;;;0.20;0.20;;;30.70;44.30;;;31.17;29.91;95065.34;5016036;28;20201;-79
2022/07/14 10:21:40;;;;;;;0.20;0.20;;;30.80;44.60;;;31.22;30.44;95065.97;5019606;28;20216;-79
2022/07/14 10:24:09;;;;;;;0.28;0.28;;;30.80;44.70;;;31.28;30.91;95048.41;5034522;28;20226;-79
2022/07/14 10:26:39;;;;;;;0.20;0.20;;;30.90;44.80;;;31.38;30.30;95047.28;5015049;28;20235;-80
2022/07/14 10:29:07;;;;;;;0.20;0.20;;;30.90;44.70;;;31.44;30.54;95046.03;5014865;28;20195;-79
2022/07/14 10:32:08;;;;;;;0.30;0.30;;;30.90;44.10;;;31.51;30.78;95048.22;5033822;28;20625;-80
2022/07/14 10:34:51;;;;;;;0.30;0.30;;;31.00;46.10;;;31.53;29.91;95042.47;5033632;28;20200;-78
2022/07/14 10:37:51;;;;;;;0.30;0.30;;;31.10;44.10;;;31.61;29.70;95044.38;5008299;28;20227;-79
2022/07/14 10:41:15;;;;;;;0.25;0.25;;;31.10;43.40;;;31.65;29.73;95048.06;5013040;28;20250;-80
2022/07/14 10:44:19;;;;;;;0.30;0.30;;;31.20;44.00;;;31.67;29.03;95026.84;5013890;28;20205;-80